createdAt,value
2019-02-08T00:08:49.039Z,10.25
2019-02-08T00:11:29.827Z,9.10
2019-02-08T00:14:11.041Z,9.23
2019-02-08T00:16:52.084Z,10.03
2019-02-08T00:19:32.994Z,10.53
2019-02-08T00:22:13.500Z,10.40
2019-02-08T00:24:54.730Z,9.05
2019-02-08T00:27:35.675Z,9.33
2019-02-08T00:30:16.821Z,10.13
2019-02-08T00:32:57.339Z,8.83
2019-02-08T00:35:38.127Z,9.50
2019-02-08T00:38:19.523Z,9.68
2019-02-08T00:41:00.913Z,8.70
2019-02-08T00:43:41.630Z,9.70
2019-02-08T00:46:22.090Z,8.93
2019-02-08T00:49:02.595Z,9.03
2019-02-08T00:51:43.171Z,10.05
2019-02-08T00:54:23.494Z,8.83
2019-02-08T00:57:04.139Z,9.05
2019-02-08T00:59:44.922Z,9.23
2019-02-08T01:02:25.285Z,8.18
2019-02-08T01:05:06.059Z,8.63
2019-02-08T01:07:46.459Z,8.98
2019-02-08T01:10:27.372Z,8.10
2019-02-08T01:13:08.684Z,8.93
2019-02-08T01:15:49.519Z,8.53
2019-02-08T01:18:30.410Z,8.08
2019-02-08T01:21:11.391Z,7.00
2019-02-08T01:23:52.143Z,6.78
2019-02-08T01:26:33.255Z,7.40
2019-02-08T01:29:13.526Z,7.45
2019-02-08T01:31:54.134Z,7.60
2019-02-08T01:34:35.195Z,7.80
2019-02-08T01:37:15.739Z,7.97
2019-02-08T01:39:56.756Z,7.12
2019-02-08T01:42:37.978Z,7.28
2019-02-08T01:45:18.504Z,7.50
2019-02-08T01:47:59.098Z,8.08
2019-02-08T01:50:39.399Z,6.90
2019-02-08T01:53:20.649Z,7.12
2019-02-08T01:56:01.284Z,7.33
2019-02-08T01:58:41.637Z,6.80
2019-02-08T02:01:22.497Z,6.62
2019-02-08T02:04:02.868Z,7.40
2019-02-08T02:06:43.474Z,6.45
2019-02-08T02:09:24.443Z,6.67
2019-02-08T02:12:05.037Z,6.72
2019-02-08T02:14:45.638Z,5.90
2019-02-08T02:17:25.966Z,6.78
2019-02-08T02:20:06.746Z,6.37
2019-02-08T02:25:29.174Z,6.30
2019-02-08T02:28:09.810Z,7.75
2019-02-08T02:30:50.691Z,6.47
2019-02-08T02:33:31.282Z,7.28
2019-02-08T02:36:11.918Z,6.83
2019-02-08T02:38:52.880Z,6.67
2019-02-08T02:41:33.475Z,6.55
2019-02-08T02:44:14.270Z,6.53
2019-02-08T02:46:55.351Z,6.20
2019-02-08T02:49:36.147Z,7.22
2019-02-08T02:54:59.418Z,6.78
2019-02-08T03:00:21.896Z,6.40
2019-02-08T03:05:48.460Z,6.45
2019-02-08T03:11:15.985Z,7.65
2019-02-08T03:16:42.219Z,6.40
2019-02-08T03:22:05.269Z,6.50
2019-02-08T03:24:46.072Z,6.12
2019-02-08T03:27:27.188Z,6.72
2019-02-08T03:30:08.488Z,6.90
2019-02-08T03:32:49.194Z,6.40
2019-02-08T03:35:29.720Z,6.47
2019-02-08T03:38:08.668Z,6.65
2019-02-08T03:40:56.519Z,5.95
2019-02-08T03:43:44.361Z,6.28
2019-02-08T03:46:32.206Z,5.80
2019-02-08T03:49:20.295Z,6.85
2019-02-08T03:52:08.149Z,6.25
2019-02-08T03:54:55.987Z,6.30
2019-02-08T03:57:36.322Z,6.40
2019-02-08T04:00:17.199Z,6.15
2019-02-08T04:02:57.738Z,6.70
2019-02-08T04:05:38.523Z,6.17
2019-02-08T04:08:20.027Z,6.05
2019-02-08T04:11:00.307Z,5.45
2019-02-08T04:13:41.126Z,5.70
2019-02-08T04:16:21.919Z,6.10
2019-02-08T04:19:03.277Z,7.03
2019-02-08T04:21:44.480Z,6.80
2019-02-08T04:24:29.988Z,6.65
2019-02-08T04:27:07.730Z,6.28
2019-02-08T04:29:48.207Z,6.10
2019-02-08T04:32:28.891Z,6.12
2019-02-08T04:35:09.698Z,7.10
2019-02-08T04:37:50.795Z,5.95
2019-02-08T04:40:31.146Z,7.03
2019-02-08T04:43:12.134Z,7.00
2019-02-08T04:45:52.733Z,6.58
2019-02-08T04:48:33.307Z,6.45
2019-02-08T04:51:13.915Z,6.67
2019-02-08T04:53:54.264Z,6.15
2019-02-08T04:56:34.885Z,6.10
2019-02-08T04:59:15.542Z,6.33
2019-02-08T05:01:56.438Z,5.40
2019-02-08T05:04:25.334Z,6.20
2019-02-08T05:06:54.307Z,5.45
2019-02-08T05:09:23.641Z,5.87
2019-02-08T05:11:52.218Z,5.67
2019-02-08T05:14:20.803Z,5.60
2019-02-08T05:16:50.038Z,6.97
2019-02-08T05:19:18.574Z,6.50
2019-02-08T05:21:47.510Z,5.30
2019-02-08T05:24:16.436Z,5.53
2019-02-08T05:26:45.391Z,5.40
2019-02-08T05:29:14.292Z,5.30
2019-02-08T05:31:42.831Z,5.10
2019-02-08T05:34:11.423Z,5.30
2019-02-08T05:36:40.007Z,5.10
2019-02-08T05:39:10.101Z,5.53
2019-02-08T05:41:38.869Z,5.37
2019-02-08T05:44:07.840Z,5.37
2019-02-08T05:46:36.394Z,5.35
2019-02-08T05:49:05.311Z,5.45
2019-02-08T05:51:33.877Z,5.50
2019-02-08T05:54:02.452Z,5.75
2019-02-08T05:56:31.665Z,5.92
2019-02-08T05:59:00.569Z,6.67
2019-02-08T06:01:29.110Z,5.80
2019-02-08T06:03:57.946Z,5.65
2019-02-08T06:06:26.770Z,5.83
2019-02-08T06:08:55.379Z,6.45
2019-02-08T06:11:23.976Z,5.85
2019-02-08T06:13:52.790Z,5.92
2019-02-08T06:16:21.348Z,6.33
2019-02-08T06:18:49.918Z,6.00
2019-02-08T06:21:19.254Z,6.28
2019-02-08T06:23:48.044Z,5.83
2019-02-08T06:26:16.610Z,5.92
2019-02-08T06:28:45.191Z,5.85
2019-02-08T06:31:13.765Z,6.00
2019-02-08T06:33:42.976Z,6.12
2019-02-08T06:36:11.785Z,6.12
2019-02-08T06:38:40.326Z,5.58
2019-02-08T06:41:09.392Z,5.97
2019-02-08T06:43:38.009Z,5.70
2019-02-08T06:46:06.896Z,5.33
2019-02-08T06:48:35.475Z,5.42
2019-02-08T06:51:04.251Z,5.87
2019-02-08T06:53:32.868Z,5.40
2019-02-08T06:56:01.445Z,5.67
2019-02-08T06:58:34.527Z,6.05
2019-02-08T07:01:22.217Z,5.60
2019-02-08T07:04:11.936Z,6.50
2019-02-08T07:07:05.969Z,5.85
2019-02-08T07:09:54.210Z,5.62
2019-02-08T07:12:42.551Z,6.28
2019-02-08T07:15:36.860Z,6.60
2019-02-08T07:18:15.462Z,5.97
2019-02-08T07:20:50.491Z,6.05
2019-02-08T07:23:47.646Z,6.08
2019-02-08T07:26:39.638Z,6.50
2019-02-08T07:29:27.335Z,6.53
2019-02-08T07:32:21.175Z,7.20
2019-02-08T07:35:07.834Z,7.03
2019-02-08T07:37:41.514Z,6.15
2019-02-08T07:40:32.566Z,6.30
2019-02-08T07:43:35.319Z,6.03
2019-02-08T07:46:23.434Z,6.80
2019-02-08T07:48:59.967Z,6.28
2019-02-08T07:51:38.271Z,6.22
2019-02-08T07:54:18.330Z,7.10
2019-02-08T07:56:58.791Z,6.92
2019-02-08T07:59:33.634Z,6.25
2019-02-08T08:02:11.078Z,6.50
2019-02-08T08:04:53.206Z,6.72
2019-02-08T08:07:29.170Z,6.70
2019-02-08T08:10:13.159Z,6.83
2019-02-08T08:13:00.954Z,7.83
2019-02-08T08:15:50.770Z,6.97
2019-02-08T08:18:47.642Z,6.37
2019-02-08T08:21:42.418Z,6.25
2019-02-08T08:24:29.167Z,6.85
2019-02-08T08:27:08.414Z,6.78
2019-02-08T08:30:01.941Z,6.72
2019-02-08T08:32:38.046Z,7.50
2019-02-08T08:35:22.280Z,6.40
2019-02-08T08:38:30.294Z,6.35
2019-02-08T08:41:44.525Z,6.12
2019-02-08T08:45:15.758Z,5.97
2019-02-08T08:48:20.714Z,5.90
2019-02-08T08:51:43.022Z,5.92
2019-02-08T08:54:39.166Z,5.83
2019-02-08T08:57:31.000Z,5.45
2019-02-08T09:00:35.858Z,5.28
2019-02-08T09:03:37.951Z,5.15
2019-02-08T09:06:47.010Z,4.12
2019-02-08T09:09:51.560Z,4.28
2019-02-08T09:12:38.472Z,4.37
2019-02-08T09:15:59.728Z,3.60
2019-02-08T09:19:05.778Z,3.55
2019-02-08T09:22:13.526Z,3.92
2019-02-08T09:25:06.918Z,3.70
2019-02-08T09:28:09.507Z,3.55
2019-02-08T09:31:21.198Z,3.22
2019-02-08T09:34:36.551Z,3.75
2019-02-08T09:37:42.269Z,3.80
2019-02-08T09:40:49.122Z,3.67
2019-02-08T09:44:07.743Z,3.83
2019-02-08T09:47:12.835Z,3.30
2019-02-08T09:50:21.682Z,3.75
2019-02-08T09:53:22.525Z,3.37
2019-02-08T09:56:51.426Z,3.02
2019-02-08T09:59:57.354Z,3.67
2019-02-08T10:02:53.875Z,3.40
2019-02-08T10:05:59.998Z,3.35
2019-02-08T10:09:12.012Z,3.20
2019-02-08T10:12:08.991Z,3.05
2019-02-08T10:15:16.490Z,3.10
2019-02-08T10:18:34.882Z,2.90
2019-02-08T10:21:54.383Z,2.83
2019-02-08T10:25:07.407Z,3.55
2019-02-08T10:28:19.080Z,3.08
2019-02-08T10:31:37.815Z,2.95
2019-02-08T10:34:43.062Z,3.80
2019-02-08T10:37:49.394Z,3.25
2019-02-08T10:40:51.393Z,3.42
2019-02-08T10:44:07.379Z,3.72
2019-02-08T10:47:11.803Z,3.58
2019-02-08T10:50:15.731Z,3.35
2019-02-08T10:53:13.207Z,3.95
2019-02-08T10:56:18.018Z,3.37
2019-02-08T10:59:20.482Z,3.47
2019-02-08T11:02:39.890Z,4.15
2019-02-08T11:05:47.054Z,3.17
2019-02-08T11:08:54.443Z,3.45
2019-02-08T11:12:01.595Z,3.12
2019-02-08T11:14:57.319Z,2.85
2019-02-08T11:18:04.499Z,3.15
2019-02-08T11:20:52.340Z,3.17
2019-02-08T11:23:40.186Z,3.12
2019-02-08T11:26:28.023Z,2.77
2019-02-08T11:29:15.868Z,2.65
2019-02-08T11:32:03.932Z,2.20
2019-02-08T11:34:51.777Z,2.05
2019-02-08T11:37:39.614Z,2.20
2019-02-08T11:40:27.627Z,2.60
2019-02-08T11:43:15.694Z,2.37
2019-02-08T11:46:03.542Z,2.92
2019-02-08T11:48:51.630Z,2.72
2019-02-08T11:51:39.452Z,2.10
2019-02-08T11:54:27.298Z,2.52
2019-02-08T12:22:07.030Z,1.72
2019-02-08T12:24:47.738Z,2.00
2019-02-08T12:27:28.534Z,1.65
2019-02-08T12:30:09.783Z,2.33
2019-02-08T12:32:51.195Z,2.05
2019-02-08T12:35:32.246Z,1.62
2019-02-08T12:38:12.714Z,2.30
2019-02-08T12:40:53.567Z,2.20
2019-02-08T12:43:33.849Z,1.70
2019-02-08T12:46:14.667Z,2.27
2019-02-08T12:48:55.198Z,2.42
2019-02-08T12:51:35.830Z,2.02
2019-02-08T12:54:17.026Z,1.57
2019-02-08T12:56:57.598Z,1.50
2019-02-08T12:59:38.261Z,2.45
2019-02-08T13:02:19.403Z,1.82
2019-02-08T13:04:59.719Z,1.52
2019-02-08T13:07:40.415Z,1.85
2019-02-08T13:10:20.776Z,1.55
2019-02-08T13:13:01.571Z,1.17
2019-02-08T13:15:42.227Z,1.42
2019-02-08T13:18:22.659Z,1.70
2019-02-08T13:21:03.270Z,1.98
2019-02-08T13:23:44.153Z,1.72
2019-02-08T13:26:25.079Z,1.82
2019-02-08T13:29:05.773Z,1.45
2019-02-08T13:31:46.535Z,1.45
2019-02-08T13:34:27.146Z,1.22
2019-02-08T13:37:08.058Z,1.07
2019-02-08T13:39:48.847Z,1.37
2019-02-08T13:42:29.879Z,1.45
2019-02-08T13:45:10.198Z,1.75
2019-02-08T13:47:50.479Z,1.20
2019-02-08T13:50:31.229Z,1.20
2019-02-08T13:53:11.555Z,1.30
2019-02-08T13:55:52.132Z,1.90
2019-02-08T13:58:33.010Z,1.32
2019-02-08T14:01:13.647Z,1.20
2019-02-08T14:03:54.863Z,1.10
2019-02-08T14:06:36.164Z,1.30
2019-02-08T14:09:17.029Z,1.45
2019-02-08T14:11:58.426Z,1.20
2019-02-08T14:14:39.636Z,1.20
2019-02-08T14:17:20.506Z,1.17
2019-02-08T14:20:01.267Z,1.10
2019-02-08T14:22:41.851Z,1.35
2019-02-08T14:25:22.281Z,0.93
2019-02-08T14:28:02.642Z,0.80
2019-02-08T14:30:43.255Z,0.85
2019-02-08T14:33:23.808Z,0.80
2019-02-08T14:36:04.366Z,0.70
2019-02-08T14:38:45.723Z,0.62
2019-02-08T14:41:25.930Z,0.93
2019-02-08T14:44:06.837Z,0.80
2019-02-08T14:46:47.798Z,0.70
2019-02-08T14:49:28.584Z,0.82
2019-02-08T14:52:09.748Z,0.95
2019-02-08T14:54:51.280Z,0.70
2019-02-08T14:57:31.612Z,1.42
2019-02-08T15:00:12.107Z,1.10
2019-02-08T15:02:52.613Z,1.42
2019-02-08T15:05:33.062Z,1.05
2019-02-08T15:08:14.214Z,1.07
2019-02-08T15:10:55.069Z,1.10
2019-02-08T15:13:35.607Z,1.52
2019-02-08T15:16:16.005Z,1.65
2019-02-08T15:21:38.435Z,1.30
2019-02-08T15:27:08.168Z,1.52
2019-02-08T15:32:30.346Z,1.47
2019-02-08T15:38:00.583Z,1.57
2019-02-08T15:43:26.643Z,1.65
2019-02-08T15:46:10.826Z,1.85
2019-02-08T15:59:56.487Z,1.57
2019-02-08T16:02:36.754Z,1.65
2019-02-08T16:22:09.887Z,1.50
2019-02-08T16:24:50.971Z,1.60
2019-02-08T16:27:31.280Z,1.60
2019-02-08T16:30:11.979Z,2.05
2019-02-08T16:32:50.938Z,1.70
2019-02-08T16:35:38.770Z,1.65
2019-02-08T16:38:26.619Z,2.00
2019-02-08T16:41:14.690Z,2.10
2019-02-08T16:44:02.559Z,1.90
2019-02-08T16:46:50.400Z,1.77
2019-02-08T16:49:38.243Z,1.55
2019-02-08T16:52:26.102Z,1.98
2019-02-08T16:55:14.531Z,1.90
2019-02-08T16:57:55.215Z,1.67
2019-02-08T17:00:35.665Z,1.60
2019-02-08T17:03:16.043Z,2.40
2019-02-08T17:05:44.690Z,2.05
2019-02-08T17:08:13.254Z,1.80
2019-02-08T17:10:41.871Z,1.80
2019-02-08T17:13:10.534Z,2.15
2019-02-08T17:15:39.106Z,1.65
2019-02-08T17:18:08.030Z,1.70
2019-02-08T17:20:38.603Z,2.12
2019-02-08T17:23:07.854Z,2.17
2019-02-08T17:25:36.658Z,1.95
2019-02-08T17:28:06.184Z,2.10
2019-02-08T17:30:34.857Z,1.92
2019-02-08T17:33:03.390Z,1.82
2019-02-08T17:35:31.980Z,1.52
2019-02-08T17:38:00.554Z,1.50
2019-02-08T17:40:31.051Z,1.95
2019-02-08T17:42:59.663Z,1.77
2019-02-08T17:45:28.263Z,1.55
2019-02-08T17:47:57.925Z,1.35
2019-02-08T17:50:26.569Z,2.15
2019-02-08T17:52:55.145Z,1.55
2019-02-08T17:55:24.604Z,1.30
2019-02-08T17:57:53.386Z,1.90
2019-02-08T18:00:34.024Z,1.40
2019-02-08T18:03:02.910Z,1.30
2019-02-08T18:05:31.430Z,2.25
2019-02-08T18:08:00.361Z,1.47
2019-02-08T18:10:29.214Z,1.98
2019-02-08T18:12:57.859Z,1.77
2019-02-08T18:15:26.437Z,1.95
2019-02-08T18:17:55.238Z,1.87
2019-02-08T18:20:26.419Z,2.22
2019-02-08T18:22:55.367Z,1.75
2019-02-08T18:25:24.210Z,1.67
2019-02-08T18:27:52.882Z,2.40
2019-02-08T18:30:21.749Z,2.05
2019-02-08T18:32:50.291Z,1.85
2019-02-08T18:35:18.890Z,1.72
2019-02-08T18:37:48.026Z,1.80
2019-02-08T18:40:17.751Z,1.50
2019-02-08T18:42:46.361Z,1.32
2019-02-08T18:45:17.582Z,1.80
2019-02-08T18:47:46.206Z,1.62
2019-02-08T18:50:18.278Z,1.65
2019-02-08T18:52:46.924Z,1.67
2019-02-08T18:55:15.666Z,1.50
2019-02-08T18:57:44.561Z,1.80
2019-02-08T19:00:16.254Z,1.90
2019-02-08T19:02:44.862Z,2.02
2019-02-08T19:05:13.498Z,2.10
2019-02-08T19:07:42.051Z,2.42
2019-02-08T19:10:12.908Z,2.15
2019-02-08T19:12:41.458Z,2.08
2019-02-08T19:15:11.032Z,2.08
2019-02-08T19:17:39.638Z,1.55
2019-02-08T19:20:09.742Z,1.95
2019-02-08T19:22:38.350Z,1.72
2019-02-08T19:25:13.338Z,1.90
2019-02-08T19:27:41.971Z,2.00
2019-02-08T19:30:16.985Z,1.77
2019-02-08T19:32:45.586Z,1.52
2019-02-08T19:35:15.369Z,2.17
2019-02-08T19:37:44.241Z,1.75
2019-02-08T19:40:15.091Z,2.05
2019-02-08T19:42:43.783Z,2.15
2019-02-08T19:45:13.302Z,1.85
2019-02-08T19:47:41.918Z,1.72
2019-02-08T19:50:18.123Z,1.77
2019-02-08T19:52:46.766Z,2.15
2019-02-08T19:55:15.331Z,1.65
2019-02-08T19:57:43.933Z,2.20
2019-02-08T20:00:14.923Z,1.98
2019-02-08T20:02:43.919Z,1.67
2019-02-08T20:05:14.867Z,1.60
2019-02-08T20:07:44.111Z,1.70
2019-02-08T20:10:15.046Z,1.90
2019-02-08T20:12:43.619Z,1.70
2019-02-08T20:15:13.994Z,2.10
2019-02-08T20:17:42.598Z,2.27
2019-02-08T20:20:11.960Z,2.10
2019-02-08T20:22:40.663Z,2.80
2019-02-08T20:25:20.313Z,2.62
2019-02-08T20:27:48.955Z,2.60
2019-02-08T20:30:19.241Z,3.15
2019-02-08T20:32:47.878Z,2.40
2019-02-08T20:35:18.138Z,2.58
2019-02-08T20:37:46.935Z,2.87
2019-02-08T20:40:18.366Z,2.60
2019-02-08T20:42:46.910Z,2.58
2019-02-08T20:45:23.658Z,2.65
2019-02-08T20:47:52.434Z,2.70
2019-02-08T20:50:21.723Z,2.47
2019-02-08T20:52:50.346Z,2.75
2019-02-08T20:55:19.066Z,2.52
2019-02-08T20:57:47.641Z,3.35
2019-02-08T21:00:29.672Z,2.87
2019-02-08T21:02:59.465Z,3.00
2019-02-08T21:05:28.597Z,3.00
2019-02-08T21:07:57.607Z,2.67
2019-02-08T21:10:26.858Z,2.17
2019-02-08T21:12:56.051Z,1.98
2019-02-08T21:15:24.622Z,2.27
2019-02-08T21:17:53.189Z,2.55
2019-02-08T21:20:21.846Z,2.45
2019-02-08T21:22:50.458Z,2.72
2019-02-08T21:25:27.413Z,2.20
2019-02-08T21:27:56.018Z,2.00
2019-02-08T21:30:24.899Z,2.22
2019-02-08T21:32:53.837Z,1.95
2019-02-08T21:35:22.379Z,2.70
2019-02-08T21:37:50.989Z,2.42
2019-02-08T21:40:21.570Z,2.02
2019-02-08T21:42:50.234Z,2.42
2019-02-08T21:45:21.490Z,2.50
2019-02-08T21:47:50.358Z,2.87
2019-02-08T21:50:19.555Z,2.52
2019-02-08T21:52:48.342Z,2.55
2019-02-08T21:55:17.642Z,2.95
2019-02-08T21:57:46.534Z,3.05
2019-02-08T22:00:22.930Z,2.55
2019-02-08T22:02:51.631Z,2.50
2019-02-08T22:05:22.892Z,2.83
2019-02-08T22:07:51.721Z,3.10
2019-02-08T22:10:20.269Z,2.70
2019-02-08T22:12:49.221Z,2.60
2019-02-08T22:15:20.709Z,2.85
2019-02-08T22:17:49.318Z,2.75
2019-02-08T22:20:17.970Z,2.77
2019-02-08T22:22:46.816Z,2.08
2019-02-08T22:25:16.766Z,2.30
2019-02-08T22:27:45.524Z,3.62
2019-02-08T22:30:18.747Z,2.27
2019-02-08T22:32:47.530Z,2.15
2019-02-08T22:35:16.418Z,2.42
2019-02-08T22:37:45.430Z,1.87
2019-02-08T22:40:16.066Z,2.62
2019-02-08T22:42:44.676Z,2.37
2019-02-08T22:45:16.394Z,1.85
2019-02-08T22:47:45.003Z,1.87
2019-02-08T22:50:14.139Z,2.58
2019-02-08T22:52:43.223Z,2.20
2019-02-08T22:55:14.206Z,2.20
2019-02-08T22:57:42.826Z,1.92
2019-02-08T23:01:04.936Z,1.95
2019-02-08T23:03:34.735Z,1.87
2019-02-08T23:06:22.590Z,2.05
2019-02-08T23:09:29.978Z,2.25
2019-02-08T23:12:18.054Z,2.22
2019-02-08T23:15:06.166Z,2.42
2019-02-08T23:17:54.306Z,2.47
2019-02-08T23:20:42.450Z,2.37
2019-02-08T23:23:30.286Z,2.60
2019-02-08T23:26:18.131Z,2.90
2019-02-08T23:29:05.966Z,3.08
2019-02-08T23:31:53.819Z,2.72
2019-02-08T23:34:41.666Z,3.40
2019-02-08T23:37:29.506Z,3.02
2019-02-08T23:40:17.367Z,3.30
2019-02-08T23:43:05.206Z,3.20
2019-02-08T23:45:53.059Z,3.22
2019-02-08T23:48:40.898Z,3.37
2019-02-08T23:51:28.967Z,3.02
2019-02-08T23:54:16.807Z,2.92
2019-02-08T23:57:05.150Z,3.15
